sensor_id;sensor_type;location;lat;lon;timestamp;temperature;humidity
62589;DHT22;58504;48.770;9.148;2022-10-16T00:00:46;21.40;64.10
62589;DHT22;58504;48.770;9.148;2022-10-16T00:03:13;21.40;64.10
62589;DHT22;58504;48.770;9.148;2022-10-16T00:05:41;21.40;64.10
62589;DHT22;58504;48.770;9.148;2022-10-16T00:08:09;21.40;64.20
62589;DHT22;58504;48.770;9.148;2022-10-16T00:10:36;21.40;64.40
62589;DHT22;58504;48.770;9.148;2022-10-16T00:13:03;21.40;64.50
62589;DHT22;58504;48.770;9.148;2022-10-16T00:15:33;21.40;64.60
62589;DHT22;58504;48.770;9.148;2022-10-16T00:18:03;21.40;64.70
62589;DHT22;58504;48.770;9.148;2022-10-16T00:20:33;21.40;64.80
62589;DHT22;58504;48.770;9.148;2022-10-16T00:23:00;21.40;64.90
62589;DHT22;58504;48.770;9.148;2022-10-16T00:25:27;21.40;64.90
62589;DHT22;58504;48.770;9.148;2022-10-16T00:27:53;21.40;65.00
62589;DHT22;58504;48.770;9.148;2022-10-16T00:30:20;21.40;65.00
62589;DHT22;58504;48.770;9.148;2022-10-16T00:32:47;21.40;65.00
62589;DHT22;58504;48.770;9.148;2022-10-16T00:35:15;21.40;64.90
62589;DHT22;58504;48.770;9.148;2022-10-16T00:37:42;21.40;64.90
62589;DHT22;58504;48.770;9.148;2022-10-16T00:40:09;21.40;65.00
62589;DHT22;58504;48.770;9.148;2022-10-16T00:42:36;21.40;65.00
62589;DHT22;58504;48.770;9.148;2022-10-16T00:45:04;21.40;65.00
62589;DHT22;58504;48.770;9.148;2022-10-16T00:47:34;21.40;65.00
62589;DHT22;58504;48.770;9.148;2022-10-16T00:50:07;21.40;65.00
62589;DHT22;58504;48.770;9.148;2022-10-16T00:52:37;21.40;65.00
62589;DHT22;58504;48.770;9.148;2022-10-16T00:55:06;21.40;65.00
62589;DHT22;58504;48.770;9.148;2022-10-16T00:57:35;21.40;64.90
62589;DHT22;58504;48.770;9.148;2022-10-16T01:00:05;21.40;65.00
62589;DHT22;58504;48.770;9.148;2022-10-16T01:02:32;21.40;65.00
62589;DHT22;58504;48.770;9.148;2022-10-16T01:04:59;21.40;64.90
62589;DHT22;58504;48.770;9.148;2022-10-16T01:07:36;21.30;64.90
62589;DHT22;58504;48.770;9.148;2022-10-16T01:10:11;21.30;64.80
62589;DHT22;58504;48.770;9.148;2022-10-16T01:12:42;21.30;64.80
62589;DHT22;58504;48.770;9.148;2022-10-16T01:15:16;21.40;64.90
62589;DHT22;58504;48.770;9.148;2022-10-16T01:17:48;21.30;64.80
62589;DHT22;58504;48.770;9.148;2022-10-16T01:20:22;21.30;64.70
62589;DHT22;58504;48.770;9.148;2022-10-16T01:23:20;21.40;64.80
62589;DHT22;58504;48.770;9.148;2022-10-16T01:26:14;21.40;64.80
62589;DHT22;58504;48.770;9.148;2022-10-16T01:28:49;21.40;64.80
62589;DHT22;58504;48.770;9.148;2022-10-16T01:31:19;21.30;64.60
62589;DHT22;58504;48.770;9.148;2022-10-16T01:33:53;21.30;64.60
62589;DHT22;58504;48.770;9.148;2022-10-16T01:36:25;21.30;64.60
62589;DHT22;58504;48.770;9.148;2022-10-16T01:38:55;21.30;64.50
62589;DHT22;58504;48.770;9.148;2022-10-16T01:41:28;21.30;64.50
62589;DHT22;58504;48.770;9.148;2022-10-16T01:44:02;21.30;64.60
62589;DHT22;58504;48.770;9.148;2022-10-16T01:46:31;21.30;64.60
62589;DHT22;58504;48.770;9.148;2022-10-16T01:48:59;21.30;64.60
62589;DHT22;58504;48.770;9.148;2022-10-16T01:51:27;21.30;64.50
62589;DHT22;58504;48.770;9.148;2022-10-16T01:53:58;21.30;64.50
62589;DHT22;58504;48.770;9.148;2022-10-16T01:56:26;21.30;64.50
62589;DHT22;58504;48.770;9.148;2022-10-16T01:58:56;21.30;64.50
62589;DHT22;58504;48.770;9.148;2022-10-16T02:01:26;21.30;64.40
62589;DHT22;58504;48.770;9.148;2022-10-16T02:03:57;21.30;64.50
62589;DHT22;58504;48.770;9.148;2022-10-16T02:06:25;21.30;64.50
62589;DHT22;58504;48.770;9.148;2022-10-16T02:08:51;21.30;64.50
62589;DHT22;58504;48.770;9.148;2022-10-16T02:11:19;21.30;64.50
62589;DHT22;58504;48.770;9.148;2022-10-16T02:13:50;21.30;64.40
62589;DHT22;58504;48.770;9.148;2022-10-16T02:16:17;21.30;64.50
62589;DHT22;58504;48.770;9.148;2022-10-16T02:18:45;21.30;64.40
62589;DHT22;58504;48.770;9.148;2022-10-16T02:21:16;21.20;64.30
62589;DHT22;58504;48.770;9.148;2022-10-16T02:23:50;21.20;64.30
62589;DHT22;58504;48.770;9.148;2022-10-16T02:26:23;21.20;64.30
62589;DHT22;58504;48.770;9.148;2022-10-16T02:28:54;21.20;64.30
62589;DHT22;58504;48.770;9.148;2022-10-16T02:31:26;21.30;64.40
62589;DHT22;58504;48.770;9.148;2022-10-16T02:33:57;21.20;64.30
62589;DHT22;58504;48.770;9.148;2022-10-16T02:36:25;21.30;64.40
62589;DHT22;58504;48.770;9.148;2022-10-16T02:38:52;21.30;64.40
62589;DHT22;58504;48.770;9.148;2022-10-16T02:41:21;21.20;64.30
62589;DHT22;58504;48.770;9.148;2022-10-16T02:43:47;21.30;64.40
62589;DHT22;58504;48.770;9.148;2022-10-16T02:46:14;21.30;64.40
62589;DHT22;58504;48.770;9.148;2022-10-16T02:48:41;21.30;64.30
62589;DHT22;58504;48.770;9.148;2022-10-16T02:51:09;21.30;64.30
62589;DHT22;58504;48.770;9.148;2022-10-16T02:53:36;21.30;64.30
62589;DHT22;58504;48.770;9.148;2022-10-16T02:56:03;21.30;64.40
62589;DHT22;58504;48.770;9.148;2022-10-16T02:58:29;21.30;64.40
62589;DHT22;58504;48.770;9.148;2022-10-16T03:00:56;21.20;64.20
62589;DHT22;58504;48.770;9.148;2022-10-16T03:03:23;21.30;64.30
62589;DHT22;58504;48.770;9.148;2022-10-16T03:05:49;21.30;64.40
62589;DHT22;58504;48.770;9.148;2022-10-16T03:08:18;21.30;64.30
62589;DHT22;58504;48.770;9.148;2022-10-16T03:10:48;21.30;64.40
62589;DHT22;58504;48.770;9.148;2022-10-16T03:13:15;21.30;64.40
62589;DHT22;58504;48.770;9.148;2022-10-16T03:15:43;21.20;64.20
62589;DHT22;58504;48.770;9.148;2022-10-16T03:18:09;21.20;65.00
62589;DHT22;58504;48.770;9.148;2022-10-16T03:20:36;21.20;64.30
62589;DHT22;58504;48.770;9.148;2022-10-16T03:23:03;21.20;64.20
62589;DHT22;58504;48.770;9.148;2022-10-16T03:25:31;21.20;64.30
62589;DHT22;58504;48.770;9.148;2022-10-16T03:27:58;21.20;64.30
62589;DHT22;58504;48.770;9.148;2022-10-16T03:30:25;21.30;64.30
62589;DHT22;58504;48.770;9.148;2022-10-16T03:32:51;21.20;64.20
62589;DHT22;58504;48.770;9.148;2022-10-16T03:35:19;21.30;64.30
62589;DHT22;58504;48.770;9.148;2022-10-16T03:37:46;21.20;64.20
62589;DHT22;58504;48.770;9.148;2022-10-16T03:40:13;21.20;64.20
62589;DHT22;58504;48.770;9.148;2022-10-16T03:42:42;21.20;64.10
62589;DHT22;58504;48.770;9.148;2022-10-16T03:45:09;21.20;64.20
62589;DHT22;58504;48.770;9.148;2022-10-16T03:47:36;21.20;64.10
62589;DHT22;58504;48.770;9.148;2022-10-16T03:50:04;21.20;64.20
62589;DHT22;58504;48.770;9.148;2022-10-16T03:52:31;21.20;64.20
62589;DHT22;58504;48.770;9.148;2022-10-16T03:54:58;21.20;64.10
62589;DHT22;58504;48.770;9.148;2022-10-16T03:57:25;21.20;64.10
62589;DHT22;58504;48.770;9.148;2022-10-16T03:59:53;21.20;64.20
62589;DHT22;58504;48.770;9.148;2022-10-16T04:02:20;21.20;64.20
62589;DHT22;58504;48.770;9.148;2022-10-16T04:04:46;21.20;64.10
62589;DHT22;58504;48.770;9.148;2022-10-16T04:07:13;21.20;64.10
62589;DHT22;58504;48.770;9.148;2022-10-16T04:09:40;21.20;64.10
62589;DHT22;58504;48.770;9.148;2022-10-16T04:12:07;21.20;64.10
62589;DHT22;58504;48.770;9.148;2022-10-16T04:14:34;21.20;64.10
62589;DHT22;58504;48.770;9.148;2022-10-16T04:17:02;21.20;64.10
62589;DHT22;58504;48.770;9.148;2022-10-16T04:19:29;21.20;64.10
62589;DHT22;58504;48.770;9.148;2022-10-16T04:21:55;21.20;64.20
62589;DHT22;58504;48.770;9.148;2022-10-16T04:24:22;21.20;64.20
62589;DHT22;58504;48.770;9.148;2022-10-16T04:26:49;21.20;64.20
62589;DHT22;58504;48.770;9.148;2022-10-16T04:29:16;21.20;64.20
62589;DHT22;58504;48.770;9.148;2022-10-16T04:31:42;21.20;64.30
62589;DHT22;58504;48.770;9.148;2022-10-16T04:34:11;21.20;64.40
62589;DHT22;58504;48.770;9.148;2022-10-16T04:36:37;21.20;64.40
62589;DHT22;58504;48.770;9.148;2022-10-16T04:39:04;21.20;64.40
62589;DHT22;58504;48.770;9.148;2022-10-16T04:41:31;21.20;64.40
62589;DHT22;58504;48.770;9.148;2022-10-16T04:43:57;21.30;64.60
62589;DHT22;58504;48.770;9.148;2022-10-16T04:46:24;21.20;64.50
62589;DHT22;58504;48.770;9.148;2022-10-16T04:48:51;21.30;64.60
62589;DHT22;58504;48.770;9.148;2022-10-16T04:51:20;21.30;64.50
62589;DHT22;58504;48.770;9.148;2022-10-16T04:53:47;21.30;65.30
62589;DHT22;58504;48.770;9.148;2022-10-16T04:56:13;21.30;64.50
62589;DHT22;58504;48.770;9.148;2022-10-16T04:58:40;21.30;64.50
62589;DHT22;58504;48.770;9.148;2022-10-16T05:01:07;21.40;64.60
62589;DHT22;58504;48.770;9.148;2022-10-16T05:03:34;21.30;64.40
62589;DHT22;58504;48.770;9.148;2022-10-16T05:06:01;21.40;64.50
62589;DHT22;58504;48.770;9.148;2022-10-16T05:08:30;21.40;64.50
62589;DHT22;58504;48.770;9.148;2022-10-16T05:10:57;21.40;64.50
62589;DHT22;58504;48.770;9.148;2022-10-16T05:13:24;21.40;64.40
62589;DHT22;58504;48.770;9.148;2022-10-16T05:15:50;21.40;64.40
62589;DHT22;58504;48.770;9.148;2022-10-16T05:18:17;21.40;64.40
62589;DHT22;58504;48.770;9.148;2022-10-16T05:20:44;21.40;64.40
62589;DHT22;58504;48.770;9.148;2022-10-16T05:23:11;21.40;64.30
62589;DHT22;58504;48.770;9.148;2022-10-16T05:25:39;21.50;64.40
62589;DHT22;58504;48.770;9.148;2022-10-16T05:28:05;21.50;64.40
62589;DHT22;58504;48.770;9.148;2022-10-16T05:30:32;21.50;64.40
62589;DHT22;58504;48.770;9.148;2022-10-16T05:32:59;21.50;64.30
62589;DHT22;58504;48.770;9.148;2022-10-16T05:35:26;21.50;64.30
62589;DHT22;58504;48.770;9.148;2022-10-16T05:37:53;21.50;64.30
62589;DHT22;58504;48.770;9.148;2022-10-16T05:40:19;21.50;64.30
62589;DHT22;58504;48.770;9.148;2022-10-16T05:42:48;21.50;64.30
62589;DHT22;58504;48.770;9.148;2022-10-16T05:45:15;21.50;64.20
62589;DHT22;58504;48.770;9.148;2022-10-16T05:47:41;21.60;64.30
62589;DHT22;58504;48.770;9.148;2022-10-16T05:50:09;21.60;64.30
62589;DHT22;58504;48.770;9.148;2022-10-16T05:52:36;21.60;64.30
62589;DHT22;58504;48.770;9.148;2022-10-16T05:55:03;21.60;64.20
62589;DHT22;58504;48.770;9.148;2022-10-16T05:57:30;21.60;64.20
62589;DHT22;58504;48.770;9.148;2022-10-16T05:59:58;21.60;64.30
62589;DHT22;58504;48.770;9.148;2022-10-16T06:02:25;21.60;64.20
62589;DHT22;58504;48.770;9.148;2022-10-16T06:04:51;21.60;64.20
62589;DHT22;58504;48.770;9.148;2022-10-16T06:07:19;21.60;64.20
62589;DHT22;58504;48.770;9.148;2022-10-16T06:09:48;21.60;64.10
62589;DHT22;58504;48.770;9.148;2022-10-16T06:12:15;21.70;64.10
62589;DHT22;58504;48.770;9.148;2022-10-16T06:14:41;21.70;64.20
62589;DHT22;58504;48.770;9.148;2022-10-16T06:17:10;21.70;64.10
62589;DHT22;58504;48.770;9.148;2022-10-16T06:19:36;21.70;64.20
62589;DHT22;58504;48.770;9.148;2022-10-16T06:22:03;21.70;64.10
62589;DHT22;58504;48.770;9.148;2022-10-16T06:24:30;21.70;64.10
62589;DHT22;58504;48.770;9.148;2022-10-16T06:26:56;21.70;64.00
62589;DHT22;58504;48.770;9.148;2022-10-16T06:29:23;21.70;64.10
62589;DHT22;58504;48.770;9.148;2022-10-16T06:31:50;21.70;64.00
62589;DHT22;58504;48.770;9.148;2022-10-16T06:34:19;21.70;64.00
62589;DHT22;58504;48.770;9.148;2022-10-16T06:36:46;21.80;64.10
62589;DHT22;58504;48.770;9.148;2022-10-16T06:39:13;21.80;64.10
62589;DHT22;58504;48.770;9.148;2022-10-16T06:41:39;21.80;64.00
62589;DHT22;58504;48.770;9.148;2022-10-16T06:44:06;21.80;63.90
62589;DHT22;58504;48.770;9.148;2022-10-16T06:46:33;21.80;63.90
62589;DHT22;58504;48.770;9.148;2022-10-16T06:49:00;21.80;63.90
62589;DHT22;58504;48.770;9.148;2022-10-16T06:51:28;21.80;63.80
62589;DHT22;58504;48.770;9.148;2022-10-16T06:53:57;21.80;63.80
62589;DHT22;58504;48.770;9.148;2022-10-16T06:56:25;21.80;63.70
62589;DHT22;58504;48.770;9.148;2022-10-16T06:58:53;21.80;63.70
62589;DHT22;58504;48.770;9.148;2022-10-16T07:01:22;21.90;63.90
62589;DHT22;58504;48.770;9.148;2022-10-16T07:03:50;21.90;63.80
62589;DHT22;58504;48.770;9.148;2022-10-16T07:06:18;21.80;63.70
62589;DHT22;58504;48.770;9.148;2022-10-16T07:08:47;21.90;63.70
62589;DHT22;58504;48.770;9.148;2022-10-16T07:11:16;21.90;63.70
62589;DHT22;58504;48.770;9.148;2022-10-16T07:13:44;21.90;63.60
62589;DHT22;58504;48.770;9.148;2022-10-16T07:16:12;21.90;63.50
62589;DHT22;58504;48.770;9.148;2022-10-16T07:18:40;21.90;63.40
62589;DHT22;58504;48.770;9.148;2022-10-16T07:21:10;21.90;63.40
62589;DHT22;58504;48.770;9.148;2022-10-16T07:23:37;21.90;63.30
62589;DHT22;58504;48.770;9.148;2022-10-16T07:26:07;21.90;63.30
62589;DHT22;58504;48.770;9.148;2022-10-16T07:28:34;22.00;63.30
62589;DHT22;58504;48.770;9.148;2022-10-16T07:31:01;22.00;63.30
62589;DHT22;58504;48.770;9.148;2022-10-16T07:33:28;21.90;63.30
62589;DHT22;58504;48.770;9.148;2022-10-16T07:35:55;21.90;63.30
62589;DHT22;58504;48.770;9.148;2022-10-16T07:38:22;21.90;63.30
62589;DHT22;58504;48.770;9.148;2022-10-16T07:40:56;21.90;63.30
62589;DHT22;58504;48.770;9.148;2022-10-16T07:43:24;21.90;63.20
62589;DHT22;58504;48.770;9.148;2022-10-16T07:45:51;21.90;63.20
62589;DHT22;58504;48.770;9.148;2022-10-16T07:48:18;21.90;63.20
62589;DHT22;58504;48.770;9.148;2022-10-16T07:50:45;21.90;63.10
62589;DHT22;58504;48.770;9.148;2022-10-16T07:53:12;22.00;63.10
62589;DHT22;58504;48.770;9.148;2022-10-16T07:55:39;22.00;63.10
62589;DHT22;58504;48.770;9.148;2022-10-16T07:58:06;22.00;63.00
62589;DHT22;58504;48.770;9.148;2022-10-16T08:00:36;22.00;63.00
62589;DHT22;58504;48.770;9.148;2022-10-16T08:03:03;22.00;63.00
62589;DHT22;58504;48.770;9.148;2022-10-16T08:05:31;22.00;62.90
62589;DHT22;58504;48.770;9.148;2022-10-16T08:07:59;22.00;62.90
62589;DHT22;58504;48.770;9.148;2022-10-16T08:10:28;22.00;62.90
62589;DHT22;58504;48.770;9.148;2022-10-16T08:12:55;22.00;62.80
62589;DHT22;58504;48.770;9.148;2022-10-16T08:15:22;22.00;62.80
62589;DHT22;58504;48.770;9.148;2022-10-16T08:17:56;22.00;62.60
62589;DHT22;58504;48.770;9.148;2022-10-16T08:20:23;22.10;62.60
62589;DHT22;58504;48.770;9.148;2022-10-16T08:22:50;22.10;62.50
62589;DHT22;58504;48.770;9.148;2022-10-16T08:25:17;22.20;62.30
62589;DHT22;58504;48.770;9.148;2022-10-16T08:27:44;22.20;62.00
62589;DHT22;58504;48.770;9.148;2022-10-16T08:30:11;22.30;61.90
62589;DHT22;58504;48.770;9.148;2022-10-16T08:32:38;22.30;61.60
62589;DHT22;58504;48.770;9.148;2022-10-16T08:35:07;22.30;61.50
62589;DHT22;58504;48.770;9.148;2022-10-16T08:37:34;22.30;61.60
62589;DHT22;58504;48.770;9.148;2022-10-16T08:40:01;22.30;61.70
62589;DHT22;58504;48.770;9.148;2022-10-16T08:42:36;22.30;61.60
62589;DHT22;58504;48.770;9.148;2022-10-16T08:45:21;22.30;61.60
62589;DHT22;58504;48.770;9.148;2022-10-16T08:47:49;22.30;61.60
62589;DHT22;58504;48.770;9.148;2022-10-16T08:50:23;22.30;61.70
62589;DHT22;58504;48.770;9.148;2022-10-16T08:52:51;22.20;61.60
62589;DHT22;58504;48.770;9.148;2022-10-16T08:55:30;22.20;61.70
62589;DHT22;58504;48.770;9.148;2022-10-16T08:57:57;22.20;61.70
62589;DHT22;58504;48.770;9.148;2022-10-16T09:00:24;22.20;61.80
62589;DHT22;58504;48.770;9.148;2022-10-16T09:02:55;22.20;62.00
62589;DHT22;58504;48.770;9.148;2022-10-16T09:05:46;22.20;62.10
62589;DHT22;58504;48.770;9.148;2022-10-16T09:08:21;22.20;62.30
62589;DHT22;58504;48.770;9.148;2022-10-16T09:10:57;22.20;62.20
62589;DHT22;58504;48.770;9.148;2022-10-16T09:13:29;22.20;62.10
62589;DHT22;58504;48.770;9.148;2022-10-16T09:16:02;22.30;62.10
62589;DHT22;58504;48.770;9.148;2022-10-16T09:18:40;22.30;61.90
62589;DHT22;58504;48.770;9.148;2022-10-16T09:21:10;22.40;61.80
62589;DHT22;58504;48.770;9.148;2022-10-16T09:23:38;22.40;61.60
62589;DHT22;58504;48.770;9.148;2022-10-16T09:26:06;22.50;61.70
62589;DHT22;58504;48.770;9.148;2022-10-16T09:28:36;22.50;61.60
62589;DHT22;58504;48.770;9.148;2022-10-16T09:31:02;22.60;61.50
62589;DHT22;58504;48.770;9.148;2022-10-16T09:33:33;22.60;61.50
62589;DHT22;58504;48.770;9.148;2022-10-16T09:36:03;22.60;61.40
62589;DHT22;58504;48.770;9.148;2022-10-16T09:38:34;22.60;61.40
62589;DHT22;58504;48.770;9.148;2022-10-16T09:41:02;22.60;61.40
62589;DHT22;58504;48.770;9.148;2022-10-16T09:43:34;22.60;61.50
62589;DHT22;58504;48.770;9.148;2022-10-16T09:46:02;22.60;61.60
62589;DHT22;58504;48.770;9.148;2022-10-16T09:48:35;22.60;61.60
62589;DHT22;58504;48.770;9.148;2022-10-16T09:51:04;22.60;61.60
62589;DHT22;58504;48.770;9.148;2022-10-16T09:53:41;22.60;61.50
62589;DHT22;58504;48.770;9.148;2022-10-16T09:56:10;22.70;61.50
62589;DHT22;58504;48.770;9.148;2022-10-16T09:58:42;22.70;61.40
62589;DHT22;58504;48.770;9.148;2022-10-16T10:01:13;22.80;61.40
62589;DHT22;58504;48.770;9.148;2022-10-16T10:03:42;22.80;61.30
62589;DHT22;58504;48.770;9.148;2022-10-16T10:06:19;22.80;61.20
62589;DHT22;58504;48.770;9.148;2022-10-16T10:09:15;22.80;61.10
62589;DHT22;58504;48.770;9.148;2022-10-16T10:11:49;22.80;60.90
62589;DHT22;58504;48.770;9.148;2022-10-16T10:14:19;22.80;60.90
62589;DHT22;58504;48.770;9.148;2022-10-16T10:16:47;22.80;60.90
62589;DHT22;58504;48.770;9.148;2022-10-16T10:19:15;22.80;60.80
62589;DHT22;58504;48.770;9.148;2022-10-16T10:21:42;22.80;60.70
62589;DHT22;58504;48.770;9.148;2022-10-16T10:24:11;22.80;60.60
62589;DHT22;58504;48.770;9.148;2022-10-16T10:26:44;22.90;60.70
62589;DHT22;58504;48.770;9.148;2022-10-16T10:29:20;22.90;60.60
62589;DHT22;58504;48.770;9.148;2022-10-16T10:31:57;22.90;60.50
62589;DHT22;58504;48.770;9.148;2022-10-16T10:34:43;22.90;60.40
62589;DHT22;58504;48.770;9.148;2022-10-16T10:37:24;23.00;60.30
62589;DHT22;58504;48.770;9.148;2022-10-16T10:40:05;23.00;60.10
62589;DHT22;58504;48.770;9.148;2022-10-16T10:42:38;23.10;60.00
62589;DHT22;58504;48.770;9.148;2022-10-16T10:45:17;23.20;59.90
62589;DHT22;58504;48.770;9.148;2022-10-16T10:47:52;23.10;59.60
62589;DHT22;58504;48.770;9.148;2022-10-16T10:50:25;23.20;59.60
62589;DHT22;58504;48.770;9.148;2022-10-16T10:52:58;23.30;59.30
62589;DHT22;58504;48.770;9.148;2022-10-16T10:55:33;23.40;59.20
62589;DHT22;58504;48.770;9.148;2022-10-16T11:01:01;23.50;58.90
62589;DHT22;58504;48.770;9.148;2022-10-16T11:03:42;23.60;58.90
62589;DHT22;58504;48.770;9.148;2022-10-16T11:06:15;23.60;58.80
62589;DHT22;58504;48.770;9.148;2022-10-16T11:08:46;23.60;58.70
62589;DHT22;58504;48.770;9.148;2022-10-16T11:11:18;23.60;58.80
62589;DHT22;58504;48.770;9.148;2022-10-16T11:13:57;23.60;58.90
62589;DHT22;58504;48.770;9.148;2022-10-16T11:16:29;23.50;58.90
62589;DHT22;58504;48.770;9.148;2022-10-16T11:18:59;23.50;58.90
62589;DHT22;58504;48.770;9.148;2022-10-16T11:21:36;23.50;59.00
62589;DHT22;58504;48.770;9.148;2022-10-16T11:24:11;23.50;59.00
62589;DHT22;58504;48.770;9.148;2022-10-16T11:26:42;23.50;59.00
62589;DHT22;58504;48.770;9.148;2022-10-16T11:29:15;23.50;59.10
62589;DHT22;58504;48.770;9.148;2022-10-16T11:31:47;23.50;59.00
62589;DHT22;58504;48.770;9.148;2022-10-16T11:34:21;23.50;59.00
62589;DHT22;58504;48.770;9.148;2022-10-16T11:36:51;23.50;59.10
62589;DHT22;58504;48.770;9.148;2022-10-16T11:39:21;23.50;59.10
62589;DHT22;58504;48.770;9.148;2022-10-16T11:41:51;23.50;59.00
62589;DHT22;58504;48.770;9.148;2022-10-16T11:44:33;23.60;59.00
62589;DHT22;58504;48.770;9.148;2022-10-16T11:47:08;23.60;58.90
62589;DHT22;58504;48.770;9.148;2022-10-16T11:49:39;23.70;58.80
62589;DHT22;58504;48.770;9.148;2022-10-16T11:52:11;23.70;58.70
62589;DHT22;58504;48.770;9.148;2022-10-16T11:54:45;23.70;58.60
62589;DHT22;58504;48.770;9.148;2022-10-16T11:57:17;23.80;58.50
62589;DHT22;58504;48.770;9.148;2022-10-16T11:59:49;23.80;58.50
62589;DHT22;58504;48.770;9.148;2022-10-16T12:02:29;23.80;58.50
62589;DHT22;58504;48.770;9.148;2022-10-16T12:05:06;23.80;58.50
62589;DHT22;58504;48.770;9.148;2022-10-16T12:07:37;23.90;58.40
62589;DHT22;58504;48.770;9.148;2022-10-16T12:10:20;23.80;58.50
62589;DHT22;58504;48.770;9.148;2022-10-16T12:12:47;23.80;58.40
62589;DHT22;58504;48.770;9.148;2022-10-16T12:15:22;23.90;58.50
62589;DHT22;58504;48.770;9.148;2022-10-16T12:17:50;23.90;58.40
62589;DHT22;58504;48.770;9.148;2022-10-16T12:20:26;23.90;58.40
62589;DHT22;58504;48.770;9.148;2022-10-16T12:22:57;23.90;58.40
62589;DHT22;58504;48.770;9.148;2022-10-16T12:25:26;23.90;59.00
62589;DHT22;58504;48.770;9.148;2022-10-16T12:28:00;23.90;58.30
62589;DHT22;58504;48.770;9.148;2022-10-16T12:30:31;23.90;58.30
62589;DHT22;58504;48.770;9.148;2022-10-16T12:33:00;23.90;58.40
62589;DHT22;58504;48.770;9.148;2022-10-16T12:35:30;23.80;58.40
62589;DHT22;58504;48.770;9.148;2022-10-16T12:38:14;23.80;58.40
62589;DHT22;58504;48.770;9.148;2022-10-16T12:40:43;23.80;58.50
62589;DHT22;58504;48.770;9.148;2022-10-16T12:43:24;23.80;58.50
62589;DHT22;58504;48.770;9.148;2022-10-16T12:46:02;23.80;58.40
62589;DHT22;58504;48.770;9.148;2022-10-16T12:48:29;23.90;58.40
62589;DHT22;58504;48.770;9.148;2022-10-16T12:50:57;23.80;58.40
62589;DHT22;58504;48.770;9.148;2022-10-16T12:53:25;23.80;58.50
62589;DHT22;58504;48.770;9.148;2022-10-16T12:56:01;23.80;58.60
62589;DHT22;58504;48.770;9.148;2022-10-16T12:58:42;23.70;58.60
62589;DHT22;58504;48.770;9.148;2022-10-16T13:01:24;23.70;58.70
62589;DHT22;58504;48.770;9.148;2022-10-16T13:04:15;23.60;58.80
62589;DHT22;58504;48.770;9.148;2022-10-16T13:06:53;23.60;59.00
62589;DHT22;58504;48.770;9.148;2022-10-16T13:09:38;23.50;59.10
62589;DHT22;58504;48.770;9.148;2022-10-16T13:12:19;23.50;59.20
62589;DHT22;58504;48.770;9.148;2022-10-16T13:15:05;23.50;59.10
62589;DHT22;58504;48.770;9.148;2022-10-16T13:17:42;23.60;59.10
62589;DHT22;58504;48.770;9.148;2022-10-16T13:20:18;23.60;59.10
62589;DHT22;58504;48.770;9.148;2022-10-16T13:22:53;23.50;59.10
62589;DHT22;58504;48.770;9.148;2022-10-16T13:25:30;23.50;59.10
62589;DHT22;58504;48.770;9.148;2022-10-16T13:28:01;23.50;59.20
62589;DHT22;58504;48.770;9.148;2022-10-16T13:30:30;23.40;59.20
62589;DHT22;58504;48.770;9.148;2022-10-16T13:33:01;23.40;59.50
62589;DHT22;58504;48.770;9.148;2022-10-16T13:35:31;23.40;59.40
62589;DHT22;58504;48.770;9.148;2022-10-16T13:38:19;23.30;59.40
62589;DHT22;58504;48.770;9.148;2022-10-16T13:40:54;23.30;59.50
62589;DHT22;58504;48.770;9.148;2022-10-16T13:43:25;23.20;59.60
62589;DHT22;58504;48.770;9.148;2022-10-16T13:45:54;23.30;59.70
62589;DHT22;58504;48.770;9.148;2022-10-16T13:48:22;23.20;59.70
62589;DHT22;58504;48.770;9.148;2022-10-16T13:51:03;23.20;59.80
62589;DHT22;58504;48.770;9.148;2022-10-16T13:53:31;23.20;59.80
62589;DHT22;58504;48.770;9.148;2022-10-16T13:55:58;23.20;59.80
62589;DHT22;58504;48.770;9.148;2022-10-16T13:58:26;23.30;59.70
62589;DHT22;58504;48.770;9.148;2022-10-16T14:00:55;23.30;59.60
62589;DHT22;58504;48.770;9.148;2022-10-16T14:03:24;23.30;59.50
62589;DHT22;58504;48.770;9.148;2022-10-16T14:05:53;23.30;59.60
62589;DHT22;58504;48.770;9.148;2022-10-16T14:08:21;23.20;59.60
62589;DHT22;58504;48.770;9.148;2022-10-16T14:10:49;23.20;59.70
62589;DHT22;58504;48.770;9.148;2022-10-16T14:13:19;23.20;59.80
62589;DHT22;58504;48.770;9.148;2022-10-16T14:15:48;23.10;60.60
62589;DHT22;58504;48.770;9.148;2022-10-16T14:18:18;23.10;60.00
62589;DHT22;58504;48.770;9.148;2022-10-16T14:20:48;23.00;60.00
62589;DHT22;58504;48.770;9.148;2022-10-16T14:23:23;23.00;60.20
62589;DHT22;58504;48.770;9.148;2022-10-16T14:26:05;22.90;60.20
62589;DHT22;58504;48.770;9.148;2022-10-16T14:28:32;22.90;60.30
62589;DHT22;58504;48.770;9.148;2022-10-16T14:31:01;22.90;60.40
62589;DHT22;58504;48.770;9.148;2022-10-16T14:33:32;22.90;60.60
62589;DHT22;58504;48.770;9.148;2022-10-16T14:36:05;22.90;60.60
62589;DHT22;58504;48.770;9.148;2022-10-16T14:38:38;22.80;60.50
62589;DHT22;58504;48.770;9.148;2022-10-16T14:41:05;22.90;60.80
62589;DHT22;58504;48.770;9.148;2022-10-16T14:43:34;22.80;60.60
62589;DHT22;58504;48.770;9.148;2022-10-16T14:46:03;22.80;60.70
62589;DHT22;58504;48.770;9.148;2022-10-16T14:48:30;22.80;60.80
62589;DHT22;58504;48.770;9.148;2022-10-16T14:50:57;22.80;60.80
62589;DHT22;58504;48.770;9.148;2022-10-16T14:53:25;22.80;60.80
62589;DHT22;58504;48.770;9.148;2022-10-16T14:55:52;22.80;60.90
62589;DHT22;58504;48.770;9.148;2022-10-16T14:58:21;22.70;60.90
62589;DHT22;58504;48.770;9.148;2022-10-16T15:00:49;22.80;61.00
62589;DHT22;58504;48.770;9.148;2022-10-16T15:03:16;22.70;61.00
62589;DHT22;58504;48.770;9.148;2022-10-16T15:05:43;22.70;61.00
62589;DHT22;58504;48.770;9.148;2022-10-16T15:08:09;22.70;61.00
62589;DHT22;58504;48.770;9.148;2022-10-16T15:10:40;22.70;61.00
62589;DHT22;58504;48.770;9.148;2022-10-16T15:13:11;22.70;61.10
62589;DHT22;58504;48.770;9.148;2022-10-16T15:15:42;22.60;61.00
62589;DHT22;58504;48.770;9.148;2022-10-16T15:18:09;22.70;61.20
62589;DHT22;58504;48.770;9.148;2022-10-16T15:20:38;22.60;61.20
62589;DHT22;58504;48.770;9.148;2022-10-16T15:23:09;22.60;61.20
62589;DHT22;58504;48.770;9.148;2022-10-16T15:25:41;22.60;61.20
62589;DHT22;58504;48.770;9.148;2022-10-16T15:28:09;22.50;61.20
62589;DHT22;58504;48.770;9.148;2022-10-16T15:30:36;22.60;61.40
62589;DHT22;58504;48.770;9.148;2022-10-16T15:33:04;22.60;61.50
62589;DHT22;58504;48.770;9.148;2022-10-16T15:35:31;22.50;61.40
62589;DHT22;58504;48.770;9.148;2022-10-16T15:37:58;22.50;61.40
62589;DHT22;58504;48.770;9.148;2022-10-16T15:40:25;22.50;61.50
62589;DHT22;58504;48.770;9.148;2022-10-16T15:42:53;22.50;61.60
62589;DHT22;58504;48.770;9.148;2022-10-16T15:45:20;22.50;61.60
62589;DHT22;58504;48.770;9.148;2022-10-16T15:47:47;22.60;61.80
62589;DHT22;58504;48.770;9.148;2022-10-16T15:50:14;22.50;61.80